Terminal Aerodrome Forecast
Issued by NWS

Home | Current Version | Previous Version | Graphics & Text | Print | Product List | Glossary On
Versions: 1 2 3 4 5 6 7 8 9 10 11 12 13 14 15 16 17 18 19 20 21 22 23 24 25 26 27
147
FTUS43 KLOT 211449 AAA
TAFORD
TAF AMD
KORD 211449Z 2115/2218 08011KT 1SM +TSRA BR BKN004CB BKN015 OVC025
     FM211600 08011KT 6SM -SHRA BR BKN006 OVC015
     FM212100 07012KT 6SM BR VCSH SCT010 OVC015
     FM220200 07008KT 6SM BR BKN008
     FM220600 31005KT 2SM BR SCT003 OVC006
     FM221500 32006KT P6SM BKN015=

USA.gov is the U.S. government's official web portal to all federal, state and local government web resources and services.